Time,TemperatureF,DewpointF,PressureIn,WindDirection,WindDirectionDegrees,WindSpeedMPH,WindSpeedGustMPH,Humidity,HourlyPrecipIn,Conditions,Clouds,dailyrainin,SolarRadiationWatts/m^2,SoftwareType,DateUTC
2013-07-21 00:01:00,75.7,72.6,30.05,West,274,0.0,0.0,90,0.00,,BKN050,0.28,0.00,VWS V14.00,2013-07-21 04:01:00,
2013-07-21 00:06:00,75.8,72.7,30.05,West,274,0.0,0.0,90,0.00,,BKN050,0.00,0.00,VWS V14.00,2013-07-21 04:06:00,
2013-07-21 00:11:00,75.7,72.6,30.05,West,274,0.0,0.0,90,0.00,,BKN050,0.00,0.00,VWS V14.00,2013-07-21 04:11:00,
2013-07-21 00:16:00,75.7,72.6,30.05,West,274,0.0,1.0,90,0.00,,BKN050,0.00,0.00,VWS V14.00,2013-07-21 04:16:00,
2013-07-21 00:21:00,75.8,72.7,30.05,West,274,0.0,0.0,90,0.00,,BKN050,0.00,0.00,VWS V14.00,2013-07-21 04:21:00,
2013-07-21 00:26:00,75.9,72.8,30.05,West,274,0.0,0.0,90,0.00,,BKN050,0.00,0.00,VWS V14.00,2013-07-21 04:26:00,
2013-07-21 00:31:00,75.9,72.8,30.05,West,274,0.0,0.0,90,0.00,,BKN050,0.00,0.00,VWS V14.00,2013-07-21 04:31:00,
2013-07-21 00:36:00,76.0,72.9,30.04,West,274,0.0,0.0,90,0.00,,BKN050,0.00,0.00,VWS V14.00,2013-07-21 04:36:00,
2013-07-21 00:41:00,76.0,72.9,30.04,West,274,0.0,0.0,90,0.00,,BKN050,0.00,0.00,VWS V14.00,2013-07-21 04:41:00,
2013-07-21 00:46:00,76.0,72.9,30.04,West,274,0.0,0.0,90,0.00,,BKN050,0.00,0.00,VWS V14.00,2013-07-21 04:46:00,
2013-07-21 00:51:00,75.9,72.8,30.04,West,274,0.0,0.0,90,0.00,,BKN050,0.00,0.00,VWS V14.00,2013-07-21 04:51:00,
2013-07-21 00:56:00,75.9,72.8,30.04,West,274,0.0,0.0,90,0.00,,BKN050,0.00,0.00,VWS V14.00,2013-07-21 04:56:00,
2013-07-21 01:01:00,76.1,73.0,30.04,West,274,0.0,0.0,90,0.00,,BKN050,0.00,0.00,VWS V14.00,2013-07-21 05:01:00,
2013-07-21 01:06:00,76.0,72.9,30.04,West,274,0.0,0.0,90,0.00,,BKN050,0.00,0.00,VWS V14.00,2013-07-21 05:06:00,
2013-07-21 01:11:00,76.2,73.1,30.04,West,274,0.0,0.0,90,0.00,,BKN050,0.00,0.00,VWS V14.00,2013-07-21 05:11:00,
2013-07-21 01:17:00,76.1,73.0,30.04,West,274,0.0,0.0,90,0.00,,BKN050,0.00,0.00,VWS V14.00,2013-07-21 05:17:00,
2013-07-21 01:22:00,76.1,73.0,30.04,West,274,0.0,0.0,90,0.00,,BKN050,0.00,0.00,VWS V14.00,2013-07-21 05:22:00,
2013-07-21 01:27:00,76.1,73.0,30.04,West,274,0.0,0.0,90,0.00,,BKN050,0.00,0.00,VWS V14.00,2013-07-21 05:27:00,
2013-07-21 01:32:00,76.1,73.0,30.04,West,274,0.0,0.0,90,0.00,,BKN050,0.00,0.00,VWS V14.00,2013-07-21 05:32:00,
2013-07-21 01:37:00,76.0,72.9,30.04,West,274,0.0,0.0,90,0.00,,BKN050,0.00,0.00,VWS V14.00,2013-07-21 05:37:00,
2013-07-21 01:42:00,76.0,72.9,30.04,West,274,0.0,0.0,90,0.00,,BKN050,0.00,0.00,VWS V14.00,2013-07-21 05:42:00,
2013-07-21 01:47:00,76.0,72.9,30.04,West,274,0.0,0.0,90,0.00,,BKN050,0.00,0.00,VWS V14.00,2013-07-21 05:47:00,
2013-07-21 01:52:00,76.1,73.0,30.04,West,274,0.0,0.0,90,0.00,,BKN050,0.00,0.00,VWS V14.00,2013-07-21 05:52:00,
2013-07-21 01:57:00,76.0,72.9,30.04,West,274,0.0,0.0,90,0.00,,BKN050,0.00,0.00,VWS V14.00,2013-07-21 05:57:00,
2013-07-21 02:02:00,76.2,73.1,30.04,West,274,0.0,0.0,90,0.00,,BKN050,0.00,0.00,VWS V14.00,2013-07-21 06:02:00,
2013-07-21 02:07:00,76.3,73.2,30.04,West,274,0.0,0.0,90,0.00,,BKN050,0.00,0.00,VWS V14.00,2013-07-21 06:07:00,
2013-07-21 02:12:00,76.4,73.2,30.04,West,274,0.0,0.0,90,0.00,,BKN050,0.00,0.00,VWS V14.00,2013-07-21 06:12:00,
2013-07-21 02:17:00,76.4,73.2,30.04,West,274,0.0,0.0,90,0.00,,BKN050,0.00,0.00,VWS V14.00,2013-07-21 06:17:00,
2013-07-21 02:22:00,76.3,73.2,30.04,West,274,0.0,0.0,90,0.00,,BKN050,0.00,0.00,VWS V14.00,2013-07-21 06:22:00,
2013-07-21 02:27:00,76.2,73.1,30.04,West,274,0.0,0.0,90,0.00,,BKN050,0.00,0.00,VWS V14.00,2013-07-21 06:27:00,
2013-07-21 02:32:00,76.2,73.1,30.04,West,274,0.0,0.0,90,0.00,,BKN050,0.00,0.00,VWS V14.00,2013-07-21 06:32:00,
2013-07-21 02:37:00,76.0,72.9,30.03,West,274,0.0,0.0,90,0.00,,BKN050,0.00,0.00,VWS V14.00,2013-07-21 06:37:00,
2013-07-21 02:42:00,76.0,72.9,30.03,West,274,0.0,0.0,90,0.00,,BKN050,0.00,0.00,VWS V14.00,2013-07-21 06:42:00,
2013-07-21 02:47:00,76.0,72.9,30.03,West,274,0.0,0.0,90,0.00,,BKN050,0.00,0.00,VWS V14.00,2013-07-21 06:47:00,
2013-07-21 02:52:00,76.0,72.9,30.03,West,274,0.0,0.0,90,0.00,,BKN050,0.00,0.00,VWS V14.00,2013-07-21 06:52:00,
2013-07-21 02:57:00,76.0,72.9,30.03,West,274,0.0,0.0,90,0.00,,BKN050,0.00,0.00,VWS V14.00,2013-07-21 06:57:00,
2013-07-21 03:02:00,76.1,73.0,30.03,West,274,0.0,0.0,90,0.00,,BKN050,0.00,0.00,VWS V14.00,2013-07-21 07:02:00,
2013-07-21 03:07:00,76.1,73.0,30.03,West,274,0.0,0.0,90,0.00,,BKN050,0.00,0.00,VWS V14.00,2013-07-21 07:07:00,
2013-07-21 03:12:00,76.0,72.9,30.02,West,274,0.0,0.0,90,0.00,,BKN050,0.00,0.00,VWS V14.00,2013-07-21 07:12:00,
2013-07-21 03:17:00,76.0,72.9,30.02,West,274,0.0,0.0,90,0.00,,BKN050,0.00,0.00,VWS V14.00,2013-07-21 07:17:00,
2013-07-21 03:22:00,75.9,72.8,30.02,West,274,0.0,0.0,90,0.00,,BKN050,0.00,0.00,VWS V14.00,2013-07-21 07:22:00,
2013-07-21 03:27:00,75.9,72.8,30.02,West,274,0.0,0.0,90,0.00,,BKN050,0.00,0.00,VWS V14.00,2013-07-21 07:27:00,
2013-07-21 03:32:00,75.8,72.7,30.02,West,274,0.0,0.0,90,0.00,,BKN050,0.00,0.00,VWS V14.00,2013-07-21 07:32:00,
2013-07-21 03:37:00,75.8,72.7,30.02,West,274,0.0,0.0,90,0.00,,BKN050,0.00,0.00,VWS V14.00,2013-07-21 07:37:00,
2013-07-21 03:42:00,75.8,72.7,30.02,West,274,0.0,0.0,90,0.00,,BKN050,0.00,0.00,VWS V14.00,2013-07-21 07:42:00,
2013-07-21 03:47:00,75.8,72.7,30.02,West,274,0.0,0.0,90,0.00,,BKN050,0.00,0.00,VWS V14.00,2013-07-21 07:47:00,
2013-07-21 03:52:00,75.8,72.7,30.02,West,274,0.0,0.0,90,0.00,,BKN050,0.00,0.00,VWS V14.00,2013-07-21 07:52:00,
2013-07-21 03:57:00,75.8,72.7,30.02,West,274,0.0,0.0,90,0.00,,BKN050,0.00,0.00,VWS V14.00,2013-07-21 07:57:00,
2013-07-21 04:02:00,75.7,72.6,30.02,West,274,0.0,0.0,90,0.00,,BKN050,0.00,0.00,VWS V14.00,2013-07-21 08:02:00,
2013-07-21 04:07:00,75.7,72.6,30.02,West,274,0.0,0.0,90,0.00,,BKN050,0.00,0.00,VWS V14.00,2013-07-21 08:07:00,
2013-07-21 04:12:00,75.6,72.5,30.02,West,274,0.0,0.0,90,0.00,,BKN050,0.00,0.00,VWS V14.00,2013-07-21 08:12:00,
2013-07-21 04:17:00,75.6,72.5,30.02,West,274,0.0,0.0,90,0.00,,BKN050,0.00,0.00,VWS V14.00,2013-07-21 08:17:00,
2013-07-21 04:22:00,75.5,72.4,30.02,West,274,0.0,0.0,90,0.00,,BKN050,0.00,0.00,VWS V14.00,2013-07-21 08:22:00,
2013-07-21 04:27:00,75.6,72.5,30.02,West,274,0.0,0.0,90,0.00,,BKN050,0.00,0.00,VWS V14.00,2013-07-21 08:27:00,
2013-07-21 04:32:00,75.8,72.7,30.02,West,274,0.0,0.0,90,0.00,,BKN050,0.00,0.00,VWS V14.00,2013-07-21 08:32:00,
2013-07-21 04:37:00,76.0,72.9,30.02,West,274,0.0,0.0,90,0.00,,BKN050,0.00,0.00,VWS V14.00,2013-07-21 08:37:00,
2013-07-21 04:42:00,76.0,72.9,30.02,West,274,0.0,0.0,90,0.00,,BKN050,0.00,0.00,VWS V14.00,2013-07-21 08:42:00,
2013-07-21 04:47:00,75.9,72.8,30.02,West,274,0.0,0.0,90,0.00,,BKN050,0.00,0.00,VWS V14.00,2013-07-21 08:47:00,
2013-07-21 04:52:00,75.8,72.7,30.02,West,274,0.0,0.0,90,0.00,,BKN050,0.00,0.00,VWS V14.00,2013-07-21 08:52:00,
2013-07-21 04:57:00,75.8,72.7,30.02,West,274,0.0,0.0,90,0.00,,BKN050,0.00,0.00,VWS V14.00,2013-07-21 08:57:00,
2013-07-21 05:02:00,75.8,72.7,30.02,West,274,0.0,0.0,90,0.00,,BKN050,0.00,0.00,VWS V14.00,2013-07-21 09:02:00,
2013-07-21 05:07:00,76.0,72.9,30.02,West,274,0.0,0.0,90,0.00,,BKN050,0.00,0.00,VWS V14.00,2013-07-21 09:07:00,
2013-07-21 05:12:00,76.2,73.1,30.02,West,274,0.0,0.0,90,0.00,,BKN050,0.00,0.00,VWS V14.00,2013-07-21 09:12:00,
2013-07-21 05:17:00,76.2,73.1,30.02,West,274,0.0,0.0,90,0.00,,BKN050,0.00,0.00,VWS V14.00,2013-07-21 09:17:00,
2013-07-21 05:22:00,76.3,73.2,30.02,West,274,0.0,0.0,90,0.00,,BKN050,0.00,0.00,VWS V14.00,2013-07-21 09:22:00,
2013-07-21 05:27:00,76.3,73.2,30.02,West,274,0.0,0.0,90,0.00,,BKN050,0.00,0.00,VWS V14.00,2013-07-21 09:27:00,
2013-07-21 05:32:00,76.3,73.2,30.02,West,274,0.0,0.0,90,0.00,,BKN050,0.00,0.00,VWS V14.00,2013-07-21 09:32:00,
2013-07-21 05:37:00,76.4,73.2,30.02,West,274,0.0,0.0,90,0.00,,BKN050,0.00,0.00,VWS V14.00,2013-07-21 09:37:00,
2013-07-21 05:42:00,76.3,73.2,30.02,West,274,0.0,0.0,90,0.00,,BKN050,0.00,0.00,VWS V14.00,2013-07-21 09:42:00,
2013-07-21 05:47:00,76.2,73.1,30.03,West,274,0.0,0.0,90,0.00,,BKN050,0.00,0.00,VWS V14.00,2013-07-21 09:47:00,
2013-07-21 05:53:00,76.1,73.0,30.03,West,274,0.0,0.0,90,0.00,,BKN050,0.00,0.00,VWS V14.00,2013-07-21 09:53:00,
2013-07-21 05:58:00,76.1,73.0,30.03,West,274,0.0,0.0,90,0.00,,BKN050,0.00,0.00,VWS V14.00,2013-07-21 09:58:00,
2013-07-21 06:03:00,76.1,73.0,30.03,West,274,0.0,0.0,90,0.00,,BKN050,0.00,0.00,VWS V14.00,2013-07-21 10:03:00,
2013-07-21 06:08:00,76.1,73.0,30.03,West,274,0.0,0.0,90,0.00,,BKN050,0.00,0.00,VWS V14.00,2013-07-21 10:08:00,
2013-07-21 06:13:00,76.3,73.2,30.03,West,274,0.0,0.0,90,0.00,,BKN050,0.00,0.00,VWS V14.00,2013-07-21 10:13:00,
2013-07-21 06:18:00,76.6,73.4,30.03,West,274,0.0,0.0,90,0.00,,BKN050,0.00,0.00,VWS V14.00,2013-07-21 10:18:00,
2013-07-21 06:23:00,76.7,73.6,30.03,West,274,0.0,0.0,90,0.00,,BKN050,0.00,0.00,VWS V14.00,2013-07-21 10:23:00,
2013-07-21 06:28:00,76.8,73.7,30.03,West,274,0.0,0.0,90,0.00,,BKN050,0.00,0.00,VWS V14.00,2013-07-21 10:28:00,
2013-07-21 06:33:00,76.8,73.7,30.04,West,274,0.0,0.0,90,0.00,,BKN050,0.00,0.00,VWS V14.00,2013-07-21 10:33:00,
2013-07-21 06:38:00,76.8,73.7,30.03,West,274,0.0,0.0,90,0.00,,BKN050,0.00,0.00,VWS V14.00,2013-07-21 10:38:00,
2013-07-21 06:43:00,76.8,73.7,30.03,West,274,0.0,0.0,90,0.00,,BKN050,0.00,0.00,VWS V14.00,2013-07-21 10:43:00,
2013-07-21 06:48:00,76.7,73.6,30.04,West,274,0.0,0.0,90,0.00,,BKN050,0.00,0.00,VWS V14.00,2013-07-21 10:48:00,
2013-07-21 06:53:00,76.7,73.6,30.04,West,274,0.0,0.0,90,0.00,,BKN050,0.00,0.00,VWS V14.00,2013-07-21 10:53:00,
2013-07-21 06:58:00,76.7,73.6,30.04,West,274,0.0,0.0,90,0.00,,BKN050,0.00,0.00,VWS V14.00,2013-07-21 10:58:00,
2013-07-21 07:03:00,76.7,73.6,30.04,West,274,0.0,0.0,90,0.00,,BKN050,0.00,0.00,VWS V14.00,2013-07-21 11:03:00,
2013-07-21 07:08:00,76.9,73.8,30.04,West,274,0.0,0.0,90,0.00,,BKN050,0.00,5.00,VWS V14.00,2013-07-21 11:08:00,
2013-07-21 07:13:00,77.0,73.8,30.04,West,274,0.0,0.0,90,0.00,,BKN050,0.00,7.00,VWS V14.00,2013-07-21 11:13:00,
2013-07-21 07:18:00,77.0,73.8,30.04,West,274,0.0,0.0,90,0.00,,BKN050,0.00,11.00,VWS V14.00,2013-07-21 11:18:00,
2013-07-21 07:23:00,77.1,73.9,30.04,West,274,0.0,0.0,90,0.00,,BKN050,0.00,12.00,VWS V14.00,2013-07-21 11:23:00,
2013-07-21 07:28:00,77.1,73.9,30.04,West,274,0.0,0.0,90,0.00,,BKN050,0.00,14.00,VWS V14.00,2013-07-21 11:28:00,
2013-07-21 07:33:00,77.2,74.0,30.04,West,274,0.0,0.0,90,0.00,,BKN050,0.00,16.00,VWS V14.00,2013-07-21 11:33:00,
2013-07-21 07:38:00,77.3,74.1,30.04,West,274,0.0,0.0,90,0.00,,BKN050,0.00,18.00,VWS V14.00,2013-07-21 11:38:00,
2013-07-21 07:43:00,77.3,74.1,30.05,West,274,0.0,0.0,90,0.00,,BKN050,0.00,18.00,VWS V14.00,2013-07-21 11:43:00,
2013-07-21 07:48:00,77.4,74.2,30.05,West,274,0.0,0.0,90,0.00,,BKN050,0.00,18.00,VWS V14.00,2013-07-21 11:48:00,
2013-07-21 07:53:00,77.5,74.3,30.06,West,274,0.0,0.0,90,0.00,,BKN050,0.00,19.00,VWS V14.00,2013-07-21 11:53:00,
2013-07-21 07:58:00,77.7,74.5,30.06,West,274,0.0,0.0,90,0.00,,BKN050,0.00,19.00,VWS V14.00,2013-07-21 11:58:00,
2013-07-21 08:03:00,77.8,74.6,30.06,West,274,0.0,0.0,90,0.00,,BKN050,0.00,21.00,VWS V14.00,2013-07-21 12:03:00,
2013-07-21 08:08:00,78.0,74.8,30.07,West,274,0.0,0.0,90,0.00,,BKN050,0.00,21.00,VWS V14.00,2013-07-21 12:08:00,
2013-07-21 08:13:00,78.1,74.9,30.07,West,274,0.0,0.0,90,0.00,,BKN050,0.00,21.00,VWS V14.00,2013-07-21 12:13:00,
2013-07-21 08:18:00,78.2,75.0,30.07,West,274,0.0,0.0,90,0.00,,BKN050,0.00,21.00,VWS V14.00,2013-07-21 12:18:00,
2013-07-21 08:23:00,78.4,75.2,30.07,West,274,0.0,0.0,90,0.00,,BKN050,0.00,23.00,VWS V14.00,2013-07-21 12:23:00,
2013-07-21 08:28:00,78.4,75.2,30.07,West,274,0.0,0.0,90,0.00,,BKN050,0.00,26.00,VWS V14.00,2013-07-21 12:28:00,
2013-07-21 08:33:00,78.6,75.4,30.07,West,274,0.0,0.0,90,0.00,,BKN050,0.00,32.00,VWS V14.00,2013-07-21 12:33:00,
2013-07-21 08:38:00,78.7,75.5,30.07,West,274,0.0,0.0,90,0.00,,BKN050,0.00,35.00,VWS V14.00,2013-07-21 12:38:00,
2013-07-21 08:43:00,78.8,75.6,30.07,West,274,0.0,0.0,90,0.00,,BKN050,0.00,39.00,VWS V14.00,2013-07-21 12:43:00,
2013-07-21 08:48:00,79.0,75.8,30.07,West,274,0.0,0.0,90,0.00,,BKN050,0.00,42.00,VWS V14.00,2013-07-21 12:48:00,
2013-07-21 08:53:00,79.1,75.9,30.07,West,274,0.0,0.0,90,0.00,,BKN050,0.00,51.00,VWS V14.00,2013-07-21 12:53:00,
2013-07-21 08:58:00,79.2,76.0,30.08,West,274,0.0,3.0,90,0.00,,BKN050,0.00,58.00,VWS V14.00,2013-07-21 12:58:00,
2013-07-21 09:03:00,79.4,76.2,30.07,West,274,0.0,0.0,90,0.00,,BKN050,0.00,63.00,VWS V14.00,2013-07-21 13:03:00,
2013-07-21 09:08:00,79.6,76.4,30.08,West,274,0.0,0.0,90,0.00,,BKN050,0.00,70.00,VWS V14.00,2013-07-21 13:08:00,
2013-07-21 09:13:00,79.9,76.7,30.08,West,274,0.0,0.0,90,0.00,,BKN050,0.00,90.00,VWS V14.00,2013-07-21 13:13:00,
2013-07-21 09:18:00,80.2,77.0,30.08,West,274,1.0,1.0,90,0.00,,BKN050,0.00,74.00,VWS V14.00,2013-07-21 13:18:00,
2013-07-21 09:23:00,80.3,76.8,30.08,West,274,0.0,0.0,89,0.00,,BKN050,0.00,90.00,VWS V14.00,2013-07-21 13:23:00,
2013-07-21 09:28:00,80.5,77.0,30.08,West,274,0.0,0.0,89,0.00,,BKN050,0.00,77.00,VWS V14.00,2013-07-21 13:28:00,
2013-07-21 09:33:00,80.8,77.3,30.08,West,274,0.0,0.0,89,0.00,,BKN050,0.00,72.00,VWS V14.00,2013-07-21 13:33:00,
2013-07-21 09:39:00,81.0,77.1,30.08,West,274,0.0,0.0,88,0.00,,BKN050,0.00,70.00,VWS V14.00,2013-07-21 13:39:00,
2013-07-21 09:44:00,81.2,77.3,30.08,West,274,0.0,2.0,88,0.00,,BKN050,0.00,70.00,VWS V14.00,2013-07-21 13:44:00,
2013-07-21 09:49:00,81.4,77.5,30.08,West,274,0.0,1.0,88,0.00,,BKN050,0.00,70.00,VWS V14.00,2013-07-21 13:49:00,
2013-07-21 09:54:00,81.5,77.6,30.08,West,274,0.0,0.0,88,0.00,,BKN050,0.00,72.00,VWS V14.00,2013-07-21 13:54:00,
2013-07-21 09:59:00,81.6,77.4,30.08,West,274,0.0,1.0,87,0.00,,BKN050,0.00,72.00,VWS V14.00,2013-07-21 13:59:00,
2013-07-21 10:04:00,81.8,77.6,30.08,West,274,0.0,1.0,87,0.00,,BKN050,0.00,72.00,VWS V14.00,2013-07-21 14:04:00,
2013-07-21 10:09:00,81.8,77.6,30.08,West,274,0.0,1.0,87,0.00,,BKN050,0.00,72.00,VWS V14.00,2013-07-21 14:09:00,
2013-07-21 10:14:00,82.0,77.8,30.08,West,274,0.0,0.0,87,0.00,,BKN050,0.00,76.00,VWS V14.00,2013-07-21 14:14:00,
2013-07-21 10:19:00,82.1,77.5,30.08,West,274,0.0,2.0,86,0.00,,BKN050,0.00,76.00,VWS V14.00,2013-07-21 14:19:00,
2013-07-21 10:24:00,82.3,77.7,30.09,West,274,0.0,1.0,86,0.00,,BKN050,0.00,77.00,VWS V14.00,2013-07-21 14:24:00,
2013-07-21 10:29:00,82.5,77.9,30.09,West,274,0.0,1.0,86,0.00,,BKN050,0.00,77.00,VWS V14.00,2013-07-21 14:29:00,
2013-07-21 10:34:00,82.5,77.9,30.09,West,274,0.0,1.0,86,0.00,,BKN050,0.00,81.00,VWS V14.00,2013-07-21 14:34:00,
2013-07-21 10:39:00,82.6,77.6,30.09,West,274,0.0,0.0,85,0.00,,BKN050,0.00,83.00,VWS V14.00,2013-07-21 14:39:00,
2013-07-21 10:44:00,82.7,77.7,30.08,West,274,0.0,0.0,85,0.00,,BKN050,0.00,88.00,VWS V14.00,2013-07-21 14:44:00,
2013-07-21 10:49:00,82.9,77.9,30.08,West,274,0.0,0.0,85,0.00,,BKN050,0.00,90.00,VWS V14.00,2013-07-21 14:49:00,
2013-07-21 10:54:00,83.2,78.2,30.09,West,274,0.0,0.0,85,0.00,,BKN050,0.00,95.00,VWS V14.00,2013-07-21 14:54:00,
2013-07-21 10:59:00,83.3,78.0,30.08,West,274,4.0,5.0,84,0.00,,BKN050,0.00,104.00,VWS V14.00,2013-07-21 14:59:00,
2013-07-21 11:04:00,83.4,78.1,30.08,West,274,0.0,5.0,84,0.00,,BKN050,0.00,111.00,VWS V14.00,2013-07-21 15:04:00,
2013-07-21 11:09:00,83.6,78.3,30.08,West,274,2.0,2.0,84,0.00,,BKN050,0.00,118.00,VWS V14.00,2013-07-21 15:09:00,
2013-07-21 11:14:00,83.6,77.9,30.09,West,273,3.0,5.0,83,0.00,,BKN050,0.00,125.00,VWS V14.00,2013-07-21 15:14:00,
2013-07-21 11:19:00,83.8,77.7,30.09,West,271,1.0,1.0,82,0.00,,BKN050,0.00,139.00,VWS V14.00,2013-07-21 15:19:00,
2013-07-21 11:24:00,84.1,78.4,30.09,West,271,0.0,2.0,83,0.00,,BKN050,0.00,158.00,VWS V14.00,2013-07-21 15:24:00,
2013-07-21 11:29:00,84.5,78.4,30.09,West,271,0.0,0.0,82,0.00,,BKN050,0.00,190.00,VWS V14.00,2013-07-21 15:29:00,
2013-07-21 11:34:00,84.8,77.9,30.09,West,267,3.0,3.0,80,0.00,,BKN050,0.00,178.00,VWS V14.00,2013-07-21 15:34:00,
2013-07-21 11:39:00,85.2,77.9,30.09,SW,234,0.0,3.0,79,0.00,,BKN050,0.00,179.00,VWS V14.00,2013-07-21 15:39:00,
2013-07-21 11:44:00,85.3,77.7,30.08,SSW,199,3.0,5.0,78,0.00,,BKN050,0.00,167.00,VWS V14.00,2013-07-21 15:44:00,
2013-07-21 11:49:00,85.4,77.8,30.08,South,188,0.0,3.0,78,0.00,,BKN050,0.00,183.00,VWS V14.00,2013-07-21 15:49:00,
2013-07-21 11:54:00,85.4,77.4,30.09,South,191,0.0,7.0,77,0.00,,BKN050,0.00,144.00,VWS V14.00,2013-07-21 15:54:00,
2013-07-21 11:59:00,85.4,77.4,30.09,SSW,192,2.0,3.0,77,0.00,,BKN050,0.00,202.00,VWS V14.00,2013-07-21 15:59:00,
2013-07-21 12:04:00,85.7,77.7,30.09,SSE,164,5.0,7.0,77,0.00,,BKN050,0.00,251.00,VWS V14.00,2013-07-21 16:04:00,
2013-07-21 12:09:00,86.1,77.7,30.09,SSE,167,1.0,5.0,76,0.00,,BKN050,0.00,276.00,VWS V14.00,2013-07-21 16:09:00,
2013-07-21 12:14:00,86.5,77.6,30.09,South,173,0.0,6.0,75,0.00,,BKN050,0.00,255.00,VWS V14.00,2013-07-21 16:14:00,
2013-07-21 12:19:00,87.1,78.6,30.08,South,171,0.0,1.0,76,0.00,,BKN050,0.00,255.00,VWS V14.00,2013-07-21 16:19:00,
2013-07-21 12:24:00,87.3,78.8,30.08,South,170,1.0,7.0,76,0.00,,BKN050,0.00,158.00,VWS V14.00,2013-07-21 16:24:00,
2013-07-21 12:29:00,87.3,78.0,30.08,South,173,0.0,5.0,74,0.00,,BKN050,0.00,237.00,VWS V14.00,2013-07-21 16:29:00,
2013-07-21 12:34:00,87.1,78.2,30.08,South,173,0.0,3.0,75,0.00,,BKN050,0.00,127.00,VWS V14.00,2013-07-21 16:34:00,
2013-07-21 12:39:00,86.7,77.8,30.08,South,179,0.0,5.0,75,0.00,,BKN050,0.00,142.00,VWS V14.00,2013-07-21 16:39:00,
2013-07-21 12:44:00,86.7,77.8,30.08,South,179,1.0,4.0,75,0.00,,BKN050,0.00,146.00,VWS V14.00,2013-07-21 16:44:00,
2013-07-21 12:49:00,86.9,78.0,30.08,South,180,1.0,5.0,75,0.00,,BKN050,0.00,239.00,VWS V14.00,2013-07-21 16:49:00,
2013-07-21 12:55:00,87.2,78.7,30.08,SSE,168,5.0,7.0,76,0.00,,BKN050,0.00,192.00,VWS V14.00,2013-07-21 16:55:00,
2013-07-21 13:00:00,87.3,78.4,30.08,South,175,10.0,10.0,75,0.00,,BKN050,0.00,186.00,VWS V14.00,2013-07-21 17:00:00,
2013-07-21 13:05:00,87.1,78.2,30.08,SSE,157,6.0,13.0,75,0.00,,BKN050,0.00,283.00,VWS V14.00,2013-07-21 17:05:00,
2013-07-21 13:10:00,87.3,77.6,30.08,South,188,9.0,9.0,73,0.00,,BKN050,0.00,163.00,VWS V14.00,2013-07-21 17:10:00,
2013-07-21 13:15:00,87.3,77.6,30.07,South,191,4.0,7.0,73,0.00,,BKN050,0.00,178.00,VWS V14.00,2013-07-21 17:15:00,
2013-07-21 13:20:00,87.5,77.4,30.07,South,180,3.0,10.0,72,0.00,,BKN050,0.00,239.00,VWS V14.00,2013-07-21 17:20:00,
2013-07-21 13:25:00,87.7,78.0,30.07,SSW,205,4.0,5.0,73,0.00,,BKN050,0.00,272.00,VWS V14.00,2013-07-21 17:25:00,
2013-07-21 13:30:00,88.4,78.2,30.07,SSW,206,4.0,10.0,72,0.00,,BKN050,0.00,202.00,VWS V14.00,2013-07-21 17:30:00,
2013-07-21 13:35:00,88.6,78.0,30.06,SSW,204,0.0,6.0,71,0.00,,BKN050,0.00,181.00,VWS V14.00,2013-07-21 17:35:00,
2013-07-21 13:40:00,88.6,77.6,30.06,SW,214,4.0,7.0,70,0.00,,BKN050,0.00,248.00,VWS V14.00,2013-07-21 17:40:00,
2013-07-21 13:45:00,88.7,77.7,30.06,South,182,0.0,4.0,70,0.00,,BKN050,0.00,183.00,VWS V14.00,2013-07-21 17:45:00,
2013-07-21 13:50:00,88.8,77.8,30.06,South,176,5.0,7.0,70,0.00,,BKN050,0.00,225.00,VWS V14.00,2013-07-21 17:50:00,
2013-07-21 13:55:00,88.9,77.8,30.06,South,180,0.0,7.0,70,0.00,,BKN050,0.00,209.00,VWS V14.00,2013-07-21 17:55:00,
2013-07-21 14:00:00,88.6,78.0,30.06,South,180,7.0,14.0,71,0.00,,BKN050,0.00,142.00,VWS V14.00,2013-07-21 18:00:00,
2013-07-21 14:05:00,88.0,77.4,30.06,South,182,4.0,9.0,71,0.00,,BKN050,0.00,132.00,VWS V14.00,2013-07-21 18:05:00,
2013-07-21 14:10:00,87.8,78.1,30.06,South,183,4.0,9.0,73,0.00,,BKN050,0.00,114.00,VWS V14.00,2013-07-21 18:10:00,
2013-07-21 14:15:00,87.7,77.1,30.06,South,185,1.0,3.0,71,0.00,,BKN050,0.00,107.00,VWS V14.00,2013-07-21 18:15:00,
2013-07-21 14:20:00,87.5,77.8,30.06,South,186,2.0,3.0,73,0.00,,BKN050,0.00,125.00,VWS V14.00,2013-07-21 18:20:00,
2013-07-21 14:25:00,87.7,78.0,30.06,South,180,4.0,5.0,73,0.00,,BKN050,0.00,148.00,VWS V14.00,2013-07-21 18:25:00,
2013-07-21 14:30:00,87.8,77.7,30.06,South,171,5.0,10.0,72,0.00,,BKN050,0.00,146.00,VWS V14.00,2013-07-21 18:30:00,
2013-07-21 14:35:00,87.7,77.6,30.06,South,174,9.0,10.0,72,0.00,,BKN050,0.00,102.00,VWS V14.00,2013-07-21 18:35:00,
2013-07-21 14:40:00,87.2,77.5,30.05,South,173,6.0,6.0,73,0.00,,BKN050,0.00,91.00,VWS V14.00,2013-07-21 18:40:00,
2013-07-21 14:45:00,86.9,77.6,30.05,South,176,2.0,8.0,74,0.00,,BKN050,0.00,79.00,VWS V14.00,2013-07-21 18:45:00,
2013-07-21 14:50:00,86.5,77.6,30.05,South,175,1.0,7.0,75,0.00,,BKN050,0.01,63.00,VWS V14.00,2013-07-21 18:50:00,
2013-07-21 14:55:00,86.1,78.1,30.05,South,175,0.0,3.0,77,0.35,,BKN050,0.03,63.00,VWS V14.00,2013-07-21 18:55:00,
2013-07-21 15:00:00,85.4,78.2,30.04,SSE,168,0.0,0.0,79,0.17,,BKN050,0.04,76.00,VWS V14.00,2013-07-21 19:00:00,
2013-07-21 15:05:00,84.7,77.8,30.04,SSE,168,0.0,0.0,80,0.13,,BKN050,0.05,95.00,VWS V14.00,2013-07-21 19:05:00,
2013-07-21 15:10:00,84.3,78.2,30.04,SSE,168,0.0,5.0,82,0.07,,BKN050,0.05,149.00,VWS V14.00,2013-07-21 19:10:00,
2013-07-21 15:15:00,84.4,78.7,30.04,SSE,163,5.0,7.0,83,0.04,,BKN050,0.05,146.00,VWS V14.00,2013-07-21 19:15:00,
2013-07-21 15:20:00,84.6,78.1,30.03,SE,142,5.0,10.0,81,0.00,,BKN050,0.05,109.00,VWS V14.00,2013-07-21 19:20:00,
2013-07-21 15:25:00,84.7,77.5,30.03,SSE,160,5.0,10.0,79,0.00,,BKN050,0.05,95.00,VWS V14.00,2013-07-21 19:25:00,
2013-07-21 15:30:00,84.7,77.5,30.03,SSE,167,6.0,12.0,79,0.00,,BKN050,0.05,83.00,VWS V14.00,2013-07-21 19:30:00,
2013-07-21 15:35:00,84.7,77.5,30.03,SSE,167,3.0,5.0,79,0.00,,BKN050,0.05,84.00,VWS V14.00,2013-07-21 19:35:00,
2013-07-21 15:40:00,84.8,77.6,30.04,SSE,150,4.0,10.0,79,0.00,,BKN050,0.05,72.00,VWS V14.00,2013-07-21 19:40:00,
2013-07-21 15:45:00,84.7,77.1,30.03,SSE,158,6.0,9.0,78,0.00,,BKN050,0.05,65.00,VWS V14.00,2013-07-21 19:45:00,
2013-07-21 15:50:00,84.5,76.9,30.03,SSE,157,4.0,11.0,78,0.00,,BKN050,0.05,62.00,VWS V14.00,2013-07-21 19:50:00,
2013-07-21 15:55:00,84.5,76.9,30.03,South,174,0.0,4.0,78,0.00,,BKN050,0.05,53.00,VWS V14.00,2013-07-21 19:55:00,
2013-07-21 16:00:00,84.5,76.9,30.03,South,187,12.0,12.0,78,0.00,,BKN050,0.05,47.00,VWS V14.00,2013-07-21 20:00:00,
2013-07-21 16:05:00,84.4,77.2,30.03,SSE,168,5.0,11.0,79,0.00,,BKN050,0.05,44.00,VWS V14.00,2013-07-21 20:05:00,
2013-07-21 16:11:00,84.2,77.0,30.03,SSE,159,5.0,10.0,79,0.00,,BKN050,0.05,39.00,VWS V14.00,2013-07-21 20:11:00,
2013-07-21 16:16:00,84.2,77.4,30.03,SSE,163,6.0,7.0,80,0.00,,BKN050,0.05,35.00,VWS V14.00,2013-07-21 20:16:00,
2013-07-21 16:21:00,84.0,77.2,30.03,SSE,153,5.0,12.0,80,0.00,,BKN050,0.05,33.00,VWS V14.00,2013-07-21 20:21:00,
2013-07-21 16:26:00,83.7,76.9,30.03,South,182,12.0,13.0,80,0.00,,BKN050,0.05,32.00,VWS V14.00,2013-07-21 20:26:00,
2013-07-21 16:31:00,83.6,77.2,30.03,South,169,5.0,7.0,81,0.00,,BKN050,0.05,32.00,VWS V14.00,2013-07-21 20:31:00,
2013-07-21 16:36:00,83.6,77.2,30.03,SSE,160,4.0,5.0,81,0.00,,BKN050,0.05,30.00,VWS V14.00,2013-07-21 20:36:00,
2013-07-21 16:41:00,83.5,77.4,30.02,SSE,163,4.0,5.0,82,0.00,,BKN050,0.05,30.00,VWS V14.00,2013-07-21 20:41:00,
2013-07-21 16:46:00,83.4,77.0,30.02,South,184,4.0,10.0,81,0.00,,BKN050,0.05,32.00,VWS V14.00,2013-07-21 20:46:00,
2013-07-21 16:51:00,83.3,76.9,30.02,South,174,5.0,9.0,81,0.00,,BKN050,0.05,33.00,VWS V14.00,2013-07-21 20:51:00,
2013-07-21 16:56:00,83.3,76.9,30.03,South,182,5.0,9.0,81,0.00,,BKN050,0.05,28.00,VWS V14.00,2013-07-21 20:56:00,
2013-07-21 17:01:00,83.3,77.2,30.05,South,183,0.0,2.0,82,0.00,,BKN050,0.05,25.00,VWS V14.00,2013-07-21 21:01:00,
2013-07-21 17:06:00,83.2,76.8,30.04,South,183,5.0,5.0,81,0.00,,BKN050,0.05,25.00,VWS V14.00,2013-07-21 21:06:00,
2013-07-21 17:11:00,83.2,76.8,30.04,South,183,3.0,5.0,81,0.00,,BKN050,0.05,18.00,VWS V14.00,2013-07-21 21:11:00,
2013-07-21 17:16:00,81.6,73.3,30.04,NNW,329,6.0,9.0,76,0.00,,BKN050,0.05,12.00,VWS V14.00,2013-07-21 21:16:00,
2013-07-21 17:21:00,79.7,71.9,30.04,WNW,292,0.0,7.0,77,0.00,,BKN050,0.05,18.00,VWS V14.00,2013-07-21 21:21:00,
2013-07-21 17:26:00,78.4,70.6,30.04,NW,317,4.0,6.0,77,0.00,,BKN050,0.05,19.00,VWS V14.00,2013-07-21 21:26:00,
2013-07-21 17:31:00,77.8,69.6,30.03,NW,315,4.0,4.0,76,0.00,,BKN050,0.05,26.00,VWS V14.00,2013-07-21 21:31:00,
2013-07-21 17:36:00,77.7,69.5,30.02,NW,315,0.0,1.0,76,0.00,,BKN110,0.05,30.00,VWS V14.00,2013-07-21 21:36:00,
2013-07-21 17:41:00,77.8,69.6,30.01,NW,315,0.0,0.0,76,0.00,,BKN110,0.05,30.00,VWS V14.00,2013-07-21 21:41:00,
2013-07-21 17:46:00,78.0,69.8,30.01,NW,315,0.0,0.0,76,0.00,,BKN110,0.05,32.00,VWS V14.00,2013-07-21 21:46:00,
2013-07-21 17:51:00,78.1,69.9,30.01,NW,315,0.0,0.0,76,0.00,,BKN110,0.05,33.00,VWS V14.00,2013-07-21 21:51:00,
2013-07-21 17:56:00,78.2,70.0,30.01,NW,315,0.0,1.0,76,0.00,,BKN110,0.05,35.00,VWS V14.00,2013-07-21 21:56:00,
2013-07-21 18:01:00,78.2,70.0,30.01,NW,319,2.0,3.0,76,0.00,,BKN110,0.05,39.00,VWS V14.00,2013-07-21 22:01:00,
2013-07-21 18:06:00,78.2,70.0,30.01,NW,325,1.0,4.0,76,0.00,,BKN110,0.05,42.00,VWS V14.00,2013-07-21 22:06:00,
2013-07-21 18:11:00,78.6,70.8,30.00,NNW,330,0.0,0.0,77,0.00,,BKN110,0.05,46.00,VWS V14.00,2013-07-21 22:11:00,
2013-07-21 18:16:00,79.1,71.7,30.00,ESE,108,5.0,5.0,78,0.00,,BKN110,0.05,51.00,VWS V14.00,2013-07-21 22:16:00,
2013-07-21 18:21:00,79.7,72.6,30.00,SE,138,4.0,4.0,79,0.00,,BKN110,0.05,54.00,VWS V14.00,2013-07-21 22:21:00,
2013-07-21 18:26:00,80.3,73.9,30.01,SE,140,1.0,1.0,81,0.00,,BKN110,0.05,54.00,VWS V14.00,2013-07-21 22:26:00,
2013-07-21 18:31:00,80.9,74.9,30.01,SE,141,4.0,6.0,82,0.00,,BKN110,0.05,53.00,VWS V14.00,2013-07-21 22:31:00,
2013-07-21 18:36:00,81.6,75.9,30.01,SSE,160,5.0,9.0,83,0.00,,OVC100,0.05,49.00,VWS V14.00,2013-07-21 22:36:00,
2013-07-21 18:41:00,82.2,76.5,30.01,SSE,159,3.0,5.0,83,0.00,,OVC100,0.05,47.00,VWS V14.00,2013-07-21 22:41:00,
2013-07-21 18:46:00,82.5,76.8,30.01,South,184,5.0,10.0,83,0.00,,OVC100,0.05,58.00,VWS V14.00,2013-07-21 22:46:00,
2013-07-21 18:51:00,82.8,76.8,30.01,South,187,1.0,4.0,82,0.00,,OVC100,0.05,81.00,VWS V14.00,2013-07-21 22:51:00,
2013-07-21 18:56:00,82.9,76.8,30.01,SSE,167,9.0,12.0,82,0.00,,OVC100,0.05,46.00,VWS V14.00,2013-07-21 22:56:00,
2013-07-21 19:01:00,82.9,76.5,30.01,South,173,4.0,8.0,81,0.00,,OVC100,0.05,26.00,VWS V14.00,2013-07-21 23:01:00,
2013-07-21 19:06:00,82.9,76.5,30.01,South,178,5.0,9.0,81,0.00,,OVC100,0.05,28.00,VWS V14.00,2013-07-21 23:06:00,
2013-07-21 19:11:00,82.9,76.8,30.01,South,186,7.0,7.0,82,0.00,,OVC100,0.05,25.00,VWS V14.00,2013-07-21 23:11:00,
2013-07-21 19:17:00,82.8,76.8,30.02,South,189,0.0,2.0,82,0.00,,OVC100,0.05,16.00,VWS V14.00,2013-07-21 23:17:00,
2013-07-21 19:22:00,82.7,76.7,30.03,South,189,0.0,3.0,82,0.00,,OVC100,0.05,11.00,VWS V14.00,2013-07-21 23:22:00,
2013-07-21 19:27:00,82.7,76.7,30.03,South,190,0.0,5.0,82,0.00,,OVC100,0.05,7.00,VWS V14.00,2013-07-21 23:27:00,
2013-07-21 19:32:00,82.5,76.8,30.03,South,188,0.0,3.0,83,0.00,,BKN100,0.05,5.00,VWS V14.00,2013-07-21 23:32:00,
2013-07-21 19:37:00,82.5,76.8,30.04,South,188,0.0,1.0,83,0.00,,BKN100,0.05,0.00,VWS V14.00,2013-07-21 23:37:00,
2013-07-21 19:42:00,82.4,76.4,30.05,South,188,4.0,4.0,82,0.00,,BKN100,0.05,0.00,VWS V14.00,2013-07-21 23:42:00,
2013-07-21 19:47:00,82.3,76.3,30.04,South,188,4.0,5.0,82,0.00,,BKN100,0.05,0.00,VWS V14.00,2013-07-21 23:47:00,
2013-07-21 19:52:00,82.3,76.3,30.05,South,188,2.0,4.0,82,0.00,,BKN100,0.05,0.00,VWS V14.00,2013-07-21 23:52:00,
2013-07-21 19:57:00,82.2,76.5,30.05,South,189,3.0,5.0,83,0.00,,BKN100,0.05,0.00,VWS V14.00,2013-07-21 23:57:00,
2013-07-21 20:02:00,82.2,76.5,30.06,South,189,0.0,0.0,83,0.00,,BKN100,0.05,0.00,VWS V14.00,2013-07-22 00:02:00,
2013-07-21 20:07:00,82.1,76.4,30.06,South,189,0.0,0.0,83,0.00,,OVC100,0.05,0.00,VWS V14.00,2013-07-22 00:07:00,
2013-07-21 20:12:00,82.1,76.4,30.06,South,189,0.0,0.0,83,0.00,,OVC100,0.05,0.00,VWS V14.00,2013-07-22 00:12:00,
2013-07-21 20:17:00,82.1,76.4,30.06,South,189,3.0,3.0,83,0.00,,OVC100,0.05,0.00,VWS V14.00,2013-07-22 00:17:00,
2013-07-21 20:22:00,82.0,76.3,30.06,South,189,0.0,0.0,83,0.00,,OVC100,0.05,0.00,VWS V14.00,2013-07-22 00:22:00,
2013-07-21 20:27:00,82.0,76.3,30.06,South,189,0.0,0.0,83,0.00,,OVC100,0.05,0.00,VWS V14.00,2013-07-22 00:27:00,
2013-07-21 20:32:00,81.9,76.2,30.07,South,189,0.0,0.0,83,0.00,,OVC100,0.05,0.00,VWS V14.00,2013-07-22 00:32:00,
2013-07-21 20:37:00,81.9,76.2,30.06,South,189,0.0,0.0,83,0.00,,OVC100,0.05,0.00,VWS V14.00,2013-07-22 00:37:00,
2013-07-21 20:42:00,81.9,76.2,30.06,South,189,0.0,0.0,83,0.00,,OVC100,0.05,0.00,VWS V14.00,2013-07-22 00:42:00,
2013-07-21 20:47:00,81.9,76.6,30.06,South,189,0.0,0.0,84,0.00,,OVC100,0.05,0.00,VWS V14.00,2013-07-22 00:47:00,
2013-07-21 20:52:00,81.8,76.5,30.06,South,189,0.0,0.0,84,0.00,,OVC100,0.05,0.00,VWS V14.00,2013-07-22 00:52:00,
2013-07-21 20:57:00,81.8,76.5,30.07,South,189,0.0,0.0,84,0.00,,OVC100,0.05,0.00,VWS V14.00,2013-07-22 00:57:00,
2013-07-21 21:02:00,81.8,76.5,30.07,South,189,0.0,0.0,84,0.00,,OVC100,0.05,0.00,VWS V14.00,2013-07-22 01:02:00,
2013-07-21 21:07:00,81.7,76.4,30.07,South,189,0.0,0.0,84,0.00,,OVC100,0.05,0.00,VWS V14.00,2013-07-22 01:07:00,
2013-07-21 21:12:00,81.6,76.3,30.07,South,189,0.0,0.0,84,0.00,,OVC100,0.05,0.00,VWS V14.00,2013-07-22 01:12:00,
2013-07-21 21:17:00,81.6,76.3,30.07,South,189,0.0,0.0,84,0.00,,OVC100,0.05,0.00,VWS V14.00,2013-07-22 01:17:00,
2013-07-21 21:22:00,81.5,76.2,30.07,South,189,0.0,0.0,84,0.00,,OVC100,0.05,0.00,VWS V14.00,2013-07-22 01:22:00,
2013-07-21 21:27:00,81.6,76.7,30.08,South,189,0.0,0.0,85,0.00,,OVC100,0.05,0.00,VWS V14.00,2013-07-22 01:27:00,
2013-07-21 21:32:00,81.5,76.6,30.08,South,189,0.0,0.0,85,0.00,,OVC100,0.05,0.00,VWS V14.00,2013-07-22 01:32:00,
2013-07-21 21:37:00,81.3,76.4,30.09,South,189,0.0,1.0,85,0.00,,OVC100,0.05,0.00,VWS V14.00,2013-07-22 01:37:00,
2013-07-21 21:42:00,81.2,76.6,30.09,South,189,2.0,3.0,86,0.00,,OVC100,0.05,0.00,VWS V14.00,2013-07-22 01:42:00,
2013-07-21 21:47:00,81.1,76.5,30.09,South,189,0.0,1.0,86,0.00,,OVC100,0.05,0.00,VWS V14.00,2013-07-22 01:47:00,
2013-07-21 21:53:00,81.0,76.4,30.09,South,189,0.0,0.0,86,0.00,,OVC100,0.05,0.00,VWS V14.00,2013-07-22 01:53:00,
2013-07-21 21:58:00,81.0,76.4,30.09,South,189,0.0,0.0,86,0.00,,OVC100,0.05,0.00,VWS V14.00,2013-07-22 01:58:00,
2013-07-21 22:03:00,80.9,76.3,30.09,South,189,0.0,0.0,86,0.00,,OVC100,0.05,0.00,VWS V14.00,2013-07-22 02:03:00,
2013-07-21 22:08:00,80.9,76.3,30.09,South,189,0.0,0.0,86,0.00,,OVC100,0.05,0.00,VWS V14.00,2013-07-22 02:08:00,
2013-07-21 22:13:00,80.9,76.3,30.09,South,189,0.0,0.0,86,0.00,,OVC100,0.05,0.00,VWS V14.00,2013-07-22 02:13:00,
2013-07-21 22:18:00,80.9,76.7,30.09,South,189,0.0,0.0,87,0.00,,OVC100,0.05,0.00,VWS V14.00,2013-07-22 02:18:00,
2013-07-21 22:23:00,80.9,76.7,30.09,South,189,0.0,1.0,87,0.00,,OVC100,0.05,0.00,VWS V14.00,2013-07-22 02:23:00,
2013-07-21 22:28:00,80.8,76.6,30.10,South,189,0.0,0.0,87,0.00,,OVC100,0.05,0.00,VWS V14.00,2013-07-22 02:28:00,
2013-07-21 22:33:00,80.8,76.6,30.10,South,189,0.0,3.0,87,0.00,,OVC100,0.05,0.00,VWS V14.00,2013-07-22 02:33:00,
2013-07-21 22:38:00,80.8,76.2,30.10,NE,54,8.0,13.0,86,0.00,,OVC100,0.05,0.00,VWS V14.00,2013-07-22 02:38:00,
2013-07-21 22:43:00,80.5,75.9,30.10,ENE,67,4.0,5.0,86,0.00,,OVC100,0.05,0.00,VWS V14.00,2013-07-22 02:43:00,
2013-07-21 22:48:00,80.3,75.7,30.10,East,94,4.0,6.0,86,0.00,,OVC100,0.05,0.00,VWS V14.00,2013-07-22 02:48:00,
2013-07-21 22:53:00,80.1,75.5,30.10,East,93,3.0,4.0,86,0.00,,OVC100,0.05,0.00,VWS V14.00,2013-07-22 02:53:00,
2013-07-21 22:58:00,79.9,75.0,30.10,East,96,3.0,5.0,85,0.00,,OVC100,0.05,0.00,VWS V14.00,2013-07-22 02:58:00,
2013-07-21 23:03:00,79.7,74.8,30.10,East,96,3.0,6.0,85,0.00,,OVC100,0.05,0.00,VWS V14.00,2013-07-22 03:03:00,
2013-07-21 23:08:00,79.5,74.6,30.10,East,96,4.0,4.0,85,0.00,,OVC100,0.05,0.00,VWS V14.00,2013-07-22 03:08:00,
2013-07-21 23:13:00,79.4,74.5,30.10,East,96,3.0,3.0,85,0.00,,OVC100,0.05,0.00,VWS V14.00,2013-07-22 03:13:00,
2013-07-21 23:18:00,79.4,74.5,30.10,East,96,0.0,0.0,85,0.00,,OVC100,0.05,0.00,VWS V14.00,2013-07-22 03:18:00,
2013-07-21 23:23:00,79.4,74.5,30.10,East,96,0.0,0.0,85,0.00,,OVC100,0.05,0.00,VWS V14.00,2013-07-22 03:23:00,
2013-07-21 23:28:00,79.3,74.4,30.10,East,96,1.0,1.0,85,0.00,,OVC100,0.05,0.00,VWS V14.00,2013-07-22 03:28:00,
2013-07-21 23:33:00,79.3,74.4,30.10,East,96,3.0,3.0,85,0.00,,OVC100,0.05,0.00,VWS V14.00,2013-07-22 03:33:00,
2013-07-21 23:38:00,79.3,74.4,30.10,East,96,2.0,3.0,85,0.00,,OVC100,0.05,0.00,VWS V14.00,2013-07-22 03:38:00,
2013-07-21 23:43:00,79.3,74.1,30.10,East,96,0.0,0.0,84,0.00,,OVC100,0.05,0.00,VWS V14.00,2013-07-22 03:43:00,
2013-07-21 23:48:00,79.3,74.1,30.10,East,96,0.0,0.0,84,0.00,,OVC100,0.05,0.00,VWS V14.00,2013-07-22 03:48:00,
2013-07-21 23:53:00,79.3,74.1,30.10,East,96,1.0,3.0,84,0.00,,OVC100,0.05,0.00,VWS V14.00,2013-07-22 03:53:00,
2013-07-21 23:58:00,79.3,74.1,30.10,East,96,0.0,0.0,84,0.00,,OVC100,0.05,0.00,VWS V14.00,2013-07-22 03:58:00,